sensor_id;sensor_type;location;lat;lon;timestamp;pressure;altitude;pressure_sealevel;temperature;humidity
13387;BME280;6763;48.524;9.044;2023-04-08T00:01:27;98016.53;;;12.95;55.55
13387;BME280;6763;48.524;9.044;2023-04-08T00:03:53;98012.22;;;12.94;55.79
13387;BME280;6763;48.524;9.044;2023-04-08T00:06:18;98012.28;;;12.93;55.80
13387;BME280;6763;48.524;9.044;2023-04-08T00:08:43;98017.47;;;12.93;55.78
13387;BME280;6763;48.524;9.044;2023-04-08T00:11:09;98016.69;;;12.89;55.58
13387;BME280;6763;48.524;9.044;2023-04-08T00:13:34;98015.09;;;12.84;56.00
13387;BME280;6763;48.524;9.044;2023-04-08T00:16:00;98018.66;;;12.80;55.69
13387;BME280;6763;48.524;9.044;2023-04-08T00:18:25;98023.06;;;12.76;56.57
13387;BME280;6763;48.524;9.044;2023-04-08T00:20:51;98026.63;;;12.72;56.10
13387;BME280;6763;48.524;9.044;2023-04-08T00:23:16;98024.94;;;12.70;56.68
13387;BME280;6763;48.524;9.044;2023-04-08T00:25:42;98036.22;;;12.69;56.94
13387;BME280;6763;48.524;9.044;2023-04-08T00:28:07;98033.59;;;12.70;56.98
13387;BME280;6763;48.524;9.044;2023-04-08T00:30:33;98038.69;;;12.75;56.43
13387;BME280;6763;48.524;9.044;2023-04-08T00:32:58;98041.22;;;12.78;56.32
13387;BME280;6763;48.524;9.044;2023-04-08T00:35:24;98036.75;;;12.83;56.84
13387;BME280;6763;48.524;9.044;2023-04-08T00:37:49;98040.09;;;12.88;56.58
13387;BME280;6763;48.524;9.044;2023-04-08T00:40:15;98038.31;;;12.90;56.20
13387;BME280;6763;48.524;9.044;2023-04-08T00:42:40;98041.72;;;12.92;56.26
13387;BME280;6763;48.524;9.044;2023-04-08T00:45:06;98037.38;;;12.92;56.32
13387;BME280;6763;48.524;9.044;2023-04-08T00:47:32;98036.47;;;12.95;56.18
13387;BME280;6763;48.524;9.044;2023-04-08T00:49:57;98037.25;;;12.98;55.91
13387;BME280;6763;48.524;9.044;2023-04-08T00:52:23;98040.66;;;13.02;56.07
13387;BME280;6763;48.524;9.044;2023-04-08T00:54:48;98040.59;;;13.03;56.17
13387;BME280;6763;48.524;9.044;2023-04-08T00:57:13;98037.97;;;13.07;55.83
13387;BME280;6763;48.524;9.044;2023-04-08T00:59:39;98037.06;;;13.07;56.15
13387;BME280;6763;48.524;9.044;2023-04-08T01:04:52;98038.81;;;13.07;55.93
13387;BME280;6763;48.524;9.044;2023-04-08T01:07:24;98030.03;;;13.11;55.79
13387;BME280;6763;48.524;9.044;2023-04-08T01:09:54;98025.66;;;13.13;55.56
13387;BME280;6763;48.524;9.044;2023-04-08T01:12:24;98033.38;;;13.16;55.77
13387;BME280;6763;48.524;9.044;2023-04-08T01:14:56;98029.91;;;13.17;55.77
13387;BME280;6763;48.524;9.044;2023-04-08T01:17:23;98039.44;;;13.17;55.11
13387;BME280;6763;48.524;9.044;2023-04-08T01:19:49;98027.31;;;13.16;55.84
13387;BME280;6763;48.524;9.044;2023-04-08T01:22:45;98034.25;;;13.15;55.43
13387;BME280;6763;48.524;9.044;2023-04-08T01:25:21;98038.69;;;13.12;55.67
13387;BME280;6763;48.524;9.044;2023-04-08T01:27:48;98041.38;;;13.09;55.84
13387;BME280;6763;48.524;9.044;2023-04-08T01:30:14;98040.56;;;13.07;55.17
13387;BME280;6763;48.524;9.044;2023-04-08T01:32:42;98037.13;;;13.03;55.69
13387;BME280;6763;48.524;9.044;2023-04-08T01:35:09;98037.19;;;13.01;55.48
13387;BME280;6763;48.524;9.044;2023-04-08T01:37:36;98030.31;;;12.99;55.51
13387;BME280;6763;48.524;9.044;2023-04-08T01:40:03;98026.88;;;12.98;56.13
13387;BME280;6763;48.524;9.044;2023-04-08T01:42:30;98033.78;;;12.98;55.85
13387;BME280;6763;48.524;9.044;2023-04-08T01:44:57;98032.06;;;12.97;55.80
13387;BME280;6763;48.524;9.044;2023-04-08T01:47:24;98028.66;;;12.95;55.64
13387;BME280;6763;48.524;9.044;2023-04-08T01:49:51;98030.41;;;12.94;55.45
13387;BME280;6763;48.524;9.044;2023-04-08T01:52:19;98028.72;;;12.93;55.56
13387;BME280;6763;48.524;9.044;2023-04-08T01:54:45;98027.84;;;12.93;55.87
13387;BME280;6763;48.524;9.044;2023-04-08T01:57:13;98033.00;;;12.94;55.47
13387;BME280;6763;48.524;9.044;2023-04-08T01:59:39;98032.19;;;12.94;55.90
13387;BME280;6763;48.524;9.044;2023-04-08T02:02:07;98032.06;;;12.97;55.28
13387;BME280;6763;48.524;9.044;2023-04-08T02:04:34;98030.34;;;12.97;55.48
13387;BME280;6763;48.524;9.044;2023-04-08T02:07:00;98035.53;;;12.99;55.36
13387;BME280;6763;48.524;9.044;2023-04-08T02:09:26;98035.47;;;13.00;55.88
13387;BME280;6763;48.524;9.044;2023-04-08T02:11:52;98034.53;;;13.03;55.56
13387;BME280;6763;48.524;9.044;2023-04-08T02:14:17;98041.41;;;13.05;55.37
13387;BME280;6763;48.524;9.044;2023-04-08T02:16:49;98029.28;;;13.06;55.24
13387;BME280;6763;48.524;9.044;2023-04-08T02:19:22;98037.03;;;13.09;55.28
13387;BME280;6763;48.524;9.044;2023-04-08T02:21:51;98032.69;;;13.10;55.51
13387;BME280;6763;48.524;9.044;2023-04-08T02:24:20;98036.09;;;13.12;55.43
13387;BME280;6763;48.524;9.044;2023-04-08T02:26:48;98039.56;;;13.12;55.08
13387;BME280;6763;48.524;9.044;2023-04-08T02:29:16;98036.84;;;13.15;55.21
13387;BME280;6763;48.524;9.044;2023-04-08T02:31:42;98042.84;;;13.19;55.06
13387;BME280;6763;48.524;9.044;2023-04-08T02:34:09;98044.44;;;13.24;55.69
13387;BME280;6763;48.524;9.044;2023-04-08T02:36:35;98039.25;;;13.24;55.10
13387;BME280;6763;48.524;9.044;2023-04-08T02:39:02;98043.56;;;13.25;55.09
13387;BME280;6763;48.524;9.044;2023-04-08T02:41:28;98040.91;;;13.27;55.19
13387;BME280;6763;48.524;9.044;2023-04-08T02:43:54;98044.31;;;13.29;55.21
13387;BME280;6763;48.524;9.044;2023-04-08T02:46:20;98041.69;;;13.30;54.96
13387;BME280;6763;48.524;9.044;2023-04-08T02:48:45;98039.03;;;13.32;54.85
13387;BME280;6763;48.524;9.044;2023-04-08T02:51:11;98046.84;;;13.32;54.83
13387;BME280;6763;48.524;9.044;2023-04-08T02:53:36;98044.28;;;13.30;55.29
13387;BME280;6763;48.524;9.044;2023-04-08T02:56:01;98039.94;;;13.31;54.97
13387;BME280;6763;48.524;9.044;2023-04-08T02:58:27;98041.69;;;13.30;54.57
13387;BME280;6763;48.524;9.044;2023-04-08T03:00:52;98039.97;;;13.29;54.78
13387;BME280;6763;48.524;9.044;2023-04-08T03:03:18;98042.63;;;13.28;54.92
13387;BME280;6763;48.524;9.044;2023-04-08T03:05:43;98042.69;;;13.25;54.76
13387;BME280;6763;48.524;9.044;2023-04-08T03:08:08;98047.09;;;13.23;54.84
13387;BME280;6763;48.524;9.044;2023-04-08T03:10:34;98047.13;;;13.21;54.78
13387;BME280;6763;48.524;9.044;2023-04-08T03:12:59;98039.38;;;13.18;54.99
13387;BME280;6763;48.524;9.044;2023-04-08T03:15:25;98046.44;;;13.15;55.42
13387;BME280;6763;48.524;9.044;2023-04-08T03:17:50;98045.59;;;13.13;55.09
13387;BME280;6763;48.524;9.044;2023-04-08T03:20:15;98042.22;;;13.09;55.10
13387;BME280;6763;48.524;9.044;2023-04-08T03:22:41;98054.31;;;13.10;55.31
13387;BME280;6763;48.524;9.044;2023-04-08T03:25:06;98049.16;;;13.09;55.33
13387;BME280;6763;48.524;9.044;2023-04-08T03:27:32;98044.81;;;13.09;55.07
13387;BME280;6763;48.524;9.044;2023-04-08T03:29:57;98052.63;;;13.09;55.50
13387;BME280;6763;48.524;9.044;2023-04-08T03:32:23;98056.16;;;13.07;55.00
13387;BME280;6763;48.524;9.044;2023-04-08T03:34:48;98057.00;;;13.07;54.89
13387;BME280;6763;48.524;9.044;2023-04-08T03:37:16;98052.66;;;13.06;55.07
13387;BME280;6763;48.524;9.044;2023-04-08T03:39:41;98050.94;;;13.07;55.07
13387;BME280;6763;48.524;9.044;2023-04-08T03:42:07;98048.34;;;13.05;55.37
13387;BME280;6763;48.524;9.044;2023-04-08T03:44:32;98055.25;;;13.06;55.14
13387;BME280;6763;48.524;9.044;2023-04-08T03:46:57;98050.06;;;13.06;55.11
13387;BME280;6763;48.524;9.044;2023-04-08T03:49:23;98053.53;;;13.05;55.00
13387;BME280;6763;48.524;9.044;2023-04-08T03:51:48;98049.19;;;13.05;55.13
13387;BME280;6763;48.524;9.044;2023-04-08T03:54:14;98057.00;;;13.05;54.70
13387;BME280;6763;48.524;9.044;2023-04-08T03:56:39;98058.72;;;13.05;55.29
13387;BME280;6763;48.524;9.044;2023-04-08T03:59:05;98046.66;;;13.04;55.28
13387;BME280;6763;48.524;9.044;2023-04-08T04:01:30;98046.66;;;13.04;54.79
13387;BME280;6763;48.524;9.044;2023-04-08T04:03:56;98049.25;;;13.04;55.35
13387;BME280;6763;48.524;9.044;2023-04-08T04:06:22;98054.44;;;13.04;54.98
13387;BME280;6763;48.524;9.044;2023-04-08T04:08:47;98051.84;;;13.04;54.87
13387;BME280;6763;48.524;9.044;2023-04-08T04:11:14;98057.91;;;13.04;55.07
13387;BME280;6763;48.524;9.044;2023-04-08T04:13:39;98048.38;;;13.03;54.81
13387;BME280;6763;48.524;9.044;2023-04-08T04:16:05;98053.63;;;13.02;55.14
13387;BME280;6763;48.524;9.044;2023-04-08T04:18:30;98055.38;;;13.01;55.07
13387;BME280;6763;48.524;9.044;2023-04-08T04:20:56;98057.16;;;12.99;54.94
13387;BME280;6763;48.524;9.044;2023-04-08T04:23:21;98055.47;;;12.97;55.11
13387;BME280;6763;48.524;9.044;2023-04-08T04:25:48;98058.16;;;12.94;55.22
13387;BME280;6763;48.524;9.044;2023-04-08T04:28:14;98064.22;;;12.93;55.14
13387;BME280;6763;48.524;9.044;2023-04-08T04:30:39;98065.22;;;12.89;55.48
13387;BME280;6763;48.524;9.044;2023-04-08T04:33:05;98061.75;;;12.87;55.55
13387;BME280;6763;48.524;9.044;2023-04-08T04:35:31;98067.06;;;12.84;55.44
13387;BME280;6763;48.524;9.044;2023-04-08T04:37:57;98070.53;;;12.83;55.87
13387;BME280;6763;48.524;9.044;2023-04-08T04:40:22;98072.34;;;12.79;55.67
13387;BME280;6763;48.524;9.044;2023-04-08T04:42:48;98069.81;;;12.76;55.52
13387;BME280;6763;48.524;9.044;2023-04-08T04:45:13;98073.31;;;12.75;56.15
13387;BME280;6763;48.524;9.044;2023-04-08T04:47:38;98081.09;;;12.75;55.69
13387;BME280;6763;48.524;9.044;2023-04-08T04:50:04;98077.69;;;12.73;55.48
13387;BME280;6763;48.524;9.044;2023-04-08T04:52:30;98069.91;;;12.73;55.85
13387;BME280;6763;48.524;9.044;2023-04-08T04:54:58;98077.69;;;12.73;55.67
13387;BME280;6763;48.524;9.044;2023-04-08T04:57:24;98084.69;;;12.70;56.11
13387;BME280;6763;48.524;9.044;2023-04-08T04:59:49;98077.81;;;12.67;56.33
13387;BME280;6763;48.524;9.044;2023-04-08T05:02:15;98084.00;;;12.62;56.31
13387;BME280;6763;48.524;9.044;2023-04-08T05:04:40;98084.09;;;12.57;56.09
13387;BME280;6763;48.524;9.044;2023-04-08T05:07:05;98087.63;;;12.53;56.38
13387;BME280;6763;48.524;9.044;2023-04-08T05:09:31;98079.91;;;12.52;56.49
13387;BME280;6763;48.524;9.044;2023-04-08T05:11:56;98084.28;;;12.50;56.29
13387;BME280;6763;48.524;9.044;2023-04-08T05:14:22;98086.81;;;12.53;56.63
13387;BME280;6763;48.524;9.044;2023-04-08T05:16:47;98085.03;;;12.55;55.89
13387;BME280;6763;48.524;9.044;2023-04-08T05:19:12;98092.81;;;12.55;56.33
13387;BME280;6763;48.524;9.044;2023-04-08T05:21:38;98092.81;;;12.53;56.74
13387;BME280;6763;48.524;9.044;2023-04-08T05:24:03;98104.00;;;12.57;56.16
13387;BME280;6763;48.524;9.044;2023-04-08T05:26:29;98103.13;;;12.58;56.11
13387;BME280;6763;48.524;9.044;2023-04-08T05:28:55;98102.13;;;12.63;56.10
13387;BME280;6763;48.524;9.044;2023-04-08T05:31:20;98097.72;;;12.67;55.96
13387;BME280;6763;48.524;9.044;2023-04-08T05:33:46;98106.25;;;12.73;56.17
13387;BME280;6763;48.524;9.044;2023-04-08T05:36:12;98101.84;;;12.77;56.08
13387;BME280;6763;48.524;9.044;2023-04-08T05:38:38;98105.19;;;12.82;55.90
13387;BME280;6763;48.524;9.044;2023-04-08T05:41:04;98100.78;;;12.85;55.81
13387;BME280;6763;48.524;9.044;2023-04-08T05:43:32;98105.00;;;12.91;55.49
13387;BME280;6763;48.524;9.044;2023-04-08T05:45:57;98096.19;;;12.96;55.90
13387;BME280;6763;48.524;9.044;2023-04-08T05:48:22;98107.28;;;13.04;55.70
13387;BME280;6763;48.524;9.044;2023-04-08T05:50:48;98109.72;;;13.12;55.51
13387;BME280;6763;48.524;9.044;2023-04-08T05:53:13;98109.47;;;13.23;55.23
13387;BME280;6763;48.524;9.044;2023-04-08T05:55:39;98117.91;;;13.31;55.18
13387;BME280;6763;48.524;9.044;2023-04-08T05:58:06;98114.25;;;13.39;55.10
13387;BME280;6763;48.524;9.044;2023-04-08T06:00:32;98119.31;;;13.44;54.43
13387;BME280;6763;48.524;9.044;2023-04-08T06:02:58;98117.50;;;13.47;54.77
13387;BME280;6763;48.524;9.044;2023-04-08T06:05:23;98120.78;;;13.55;54.55
13387;BME280;6763;48.524;9.044;2023-04-08T06:07:48;98120.72;;;13.58;54.38
13387;BME280;6763;48.524;9.044;2023-04-08T06:10:14;98123.13;;;13.64;54.23
13387;BME280;6763;48.524;9.044;2023-04-08T06:12:40;98123.00;;;13.71;54.24
13387;BME280;6763;48.524;9.044;2023-04-08T06:15:06;98126.31;;;13.76;54.06
13387;BME280;6763;48.524;9.044;2023-04-08T06:17:32;98121.78;;;13.84;54.09
13387;BME280;6763;48.524;9.044;2023-04-08T06:19:57;98126.75;;;13.93;54.13
13387;BME280;6763;48.524;9.044;2023-04-08T06:22:22;98125.63;;;14.01;53.92
13387;BME280;6763;48.524;9.044;2023-04-08T06:24:48;98128.81;;;14.12;53.42
13387;BME280;6763;48.524;9.044;2023-04-08T06:27:13;98129.47;;;14.20;53.33
13387;BME280;6763;48.524;9.044;2023-04-08T06:29:39;98130.13;;;14.27;52.08
13387;BME280;6763;48.524;9.044;2023-04-08T06:32:05;98130.81;;;14.35;52.43
13387;BME280;6763;48.524;9.044;2023-04-08T06:34:30;98125.31;;;14.46;51.97
13387;BME280;6763;48.524;9.044;2023-04-08T06:36:56;98126.72;;;14.57;51.92
13387;BME280;6763;48.524;9.044;2023-04-08T06:39:22;98127.38;;;14.64;51.42
13387;BME280;6763;48.524;9.044;2023-04-08T06:41:47;98129.75;;;14.71;50.68
13387;BME280;6763;48.524;9.044;2023-04-08T06:44:12;98134.81;;;14.76;50.35
13387;BME280;6763;48.524;9.044;2023-04-08T06:46:38;98137.34;;;14.79;50.03
13387;BME280;6763;48.524;9.044;2023-04-08T06:49:03;98134.63;;;14.83;50.09
13387;BME280;6763;48.524;9.044;2023-04-08T06:51:31;98142.19;;;14.91;50.02
13387;BME280;6763;48.524;9.044;2023-04-08T06:53:56;98134.09;;;15.00;49.88
13387;BME280;6763;48.524;9.044;2023-04-08T06:56:22;98134.63;;;15.11;49.45
13387;BME280;6763;48.524;9.044;2023-04-08T06:58:47;98132.47;;;15.24;49.08
13387;BME280;6763;48.524;9.044;2023-04-08T07:01:13;98133.84;;;15.35;48.34
13387;BME280;6763;48.524;9.044;2023-04-08T07:03:40;98134.50;;;15.42;48.18
13387;BME280;6763;48.524;9.044;2023-04-08T07:06:05;98139.78;;;15.40;47.58
13387;BME280;6763;48.524;9.044;2023-04-08T07:08:31;98144.94;;;15.42;47.99
13387;BME280;6763;48.524;9.044;2023-04-08T07:10:56;98157.09;;;15.43;47.96
13387;BME280;6763;48.524;9.044;2023-04-08T07:13:21;98152.81;;;15.40;47.83
13387;BME280;6763;48.524;9.044;2023-04-08T07:15:47;98139.81;;;15.39;47.75
13387;BME280;6763;48.524;9.044;2023-04-08T07:18:13;98148.34;;;15.44;46.82
13387;BME280;6763;48.524;9.044;2023-04-08T07:20:38;98151.66;;;15.50;46.93
13387;BME280;6763;48.524;9.044;2023-04-08T07:23:03;98149.78;;;15.54;46.34
13387;BME280;6763;48.524;9.044;2023-04-08T07:25:29;98151.41;;;15.58;46.32
13387;BME280;6763;48.524;9.044;2023-04-08T07:27:54;98148.69;;;15.61;45.74
13387;BME280;6763;48.524;9.044;2023-04-08T07:30:20;98156.38;;;15.66;45.70
13387;BME280;6763;48.524;9.044;2023-04-08T07:32:46;98154.53;;;15.69;45.45
13387;BME280;6763;48.524;9.044;2023-04-08T07:35:11;98153.66;;;15.69;44.87
13387;BME280;6763;48.524;9.044;2023-04-08T07:37:37;98167.69;;;15.65;44.75
13387;BME280;6763;48.524;9.044;2023-04-08T07:40:02;98155.59;;;15.62;44.59
13387;BME280;6763;48.524;9.044;2023-04-08T07:42:28;98163.41;;;15.64;44.78
13387;BME280;6763;48.524;9.044;2023-04-08T07:44:53;98169.31;;;15.69;44.60
13387;BME280;6763;48.524;9.044;2023-04-08T07:47:19;98167.19;;;15.80;44.42
13387;BME280;6763;48.524;9.044;2023-04-08T07:49:47;98164.47;;;15.83;44.12
13387;BME280;6763;48.524;9.044;2023-04-08T07:52:13;98172.38;;;15.81;43.91
13387;BME280;6763;48.524;9.044;2023-04-08T07:54:38;98171.56;;;15.79;44.20
13387;BME280;6763;48.524;9.044;2023-04-08T07:57:03;98167.41;;;15.74;43.78
13387;BME280;6763;48.524;9.044;2023-04-08T07:59:29;98167.50;;;15.71;43.81
13387;BME280;6763;48.524;9.044;2023-04-08T08:01:55;98173.94;;;15.61;43.51
13387;BME280;6763;48.524;9.044;2023-04-08T08:04:21;98175.94;;;15.52;43.81
13387;BME280;6763;48.524;9.044;2023-04-08T08:06:49;98174.13;;;15.55;43.92
13387;BME280;6763;48.524;9.044;2023-04-08T08:09:15;98180.84;;;15.62;43.67
13387;BME280;6763;48.524;9.044;2023-04-08T08:11:40;98174.03;;;15.58;43.55
13387;BME280;6763;48.524;9.044;2023-04-08T08:14:05;98178.59;;;15.51;43.61
13387;BME280;6763;48.524;9.044;2023-04-08T08:16:32;98181.31;;;15.48;43.73
13387;BME280;6763;48.524;9.044;2023-04-08T08:18:57;98184.78;;;15.48;43.83
13387;BME280;6763;48.524;9.044;2023-04-08T08:21:23;98181.09;;;15.54;43.61
13387;BME280;6763;48.524;9.044;2023-04-08T08:23:51;98187.72;;;15.64;43.28
13387;BME280;6763;48.524;9.044;2023-04-08T08:26:16;98184.03;;;15.71;42.87
13387;BME280;6763;48.524;9.044;2023-04-08T08:28:42;98185.53;;;15.78;42.78
13387;BME280;6763;48.524;9.044;2023-04-08T08:31:07;98190.47;;;15.86;42.74
13387;BME280;6763;48.524;9.044;2023-04-08T08:33:33;98189.38;;;15.93;42.54
13387;BME280;6763;48.524;9.044;2023-04-08T08:35:58;98189.97;;;16.01;42.25
13387;BME280;6763;48.524;9.044;2023-04-08T08:38:24;98197.66;;;16.05;42.42
13387;BME280;6763;48.524;9.044;2023-04-08T08:40:54;98206.31;;;16.06;42.40
13387;BME280;6763;48.524;9.044;2023-04-08T08:43:20;98202.88;;;16.05;42.50
13387;BME280;6763;48.524;9.044;2023-04-08T08:45:46;98199.31;;;16.08;42.39
13387;BME280;6763;48.524;9.044;2023-04-08T08:48:11;98205.59;;;16.27;42.21
13387;BME280;6763;48.524;9.044;2023-04-08T08:50:36;98200.59;;;16.46;41.99
13387;BME280;6763;48.524;9.044;2023-04-08T08:53:02;98198.09;;;16.67;41.63
13387;BME280;6763;48.524;9.044;2023-04-08T08:55:30;98189.88;;;17.01;40.68
13387;BME280;6763;48.524;9.044;2023-04-08T08:57:59;98201.56;;;17.36;40.40
13387;BME280;6763;48.524;9.044;2023-04-08T09:03:14;98198.63;;;17.88;38.41
13387;BME280;6763;48.524;9.044;2023-04-08T09:06:00;98205.63;;;18.08;38.22
13387;BME280;6763;48.524;9.044;2023-04-08T09:08:35;98197.81;;;18.28;38.10
13387;BME280;6763;48.524;9.044;2023-04-08T09:11:17;98195.84;;;18.53;37.66
13387;BME280;6763;48.524;9.044;2023-04-08T09:13:46;98201.19;;;18.71;37.12
13387;BME280;6763;48.524;9.044;2023-04-08T09:16:13;98201.78;;;18.77;36.70
13387;BME280;6763;48.524;9.044;2023-04-08T09:18:40;98196.75;;;18.73;36.60
13387;BME280;6763;48.524;9.044;2023-04-08T09:21:08;98202.25;;;18.67;36.38
13387;BME280;6763;48.524;9.044;2023-04-08T09:26:12;98201.44;;;18.44;35.99
13387;BME280;6763;48.524;9.044;2023-04-08T09:28:39;98211.34;;;18.38;36.12
13387;BME280;6763;48.524;9.044;2023-04-08T09:31:18;98206.41;;;18.52;35.84
13387;BME280;6763;48.524;9.044;2023-04-08T09:33:51;98210.47;;;18.59;35.73
13387;BME280;6763;48.524;9.044;2023-04-08T09:36:18;98206.66;;;18.66;35.51
13387;BME280;6763;48.524;9.044;2023-04-08T09:38:44;98209.34;;;18.83;35.35
13387;BME280;6763;48.524;9.044;2023-04-08T09:41:13;98200.94;;;18.95;34.80
13387;BME280;6763;48.524;9.044;2023-04-08T09:43:46;98199.03;;;18.99;34.70
13387;BME280;6763;48.524;9.044;2023-04-08T09:46:17;98198.97;;;19.19;34.40
13387;BME280;6763;48.524;9.044;2023-04-08T09:48:55;98204.88;;;19.24;33.95
13387;BME280;6763;48.524;9.044;2023-04-08T09:51:23;98203.78;;;19.28;33.36
13387;BME280;6763;48.524;9.044;2023-04-08T09:53:55;98201.41;;;19.42;32.37
13387;BME280;6763;48.524;9.044;2023-04-08T09:56:26;98202.91;;;19.48;31.52
13387;BME280;6763;48.524;9.044;2023-04-08T09:58:58;98198.03;;;19.57;31.71
13387;BME280;6763;48.524;9.044;2023-04-08T10:01:31;98200.88;;;19.89;31.28
13387;BME280;6763;48.524;9.044;2023-04-08T10:04:04;98199.53;;;20.33;31.01
13387;BME280;6763;48.524;9.044;2023-04-08T10:06:33;98195.22;;;20.82;30.57
13387;BME280;6763;48.524;9.044;2023-04-08T10:09:00;98196.81;;;21.33;30.19
13387;BME280;6763;48.524;9.044;2023-04-08T10:11:27;98186.41;;;21.77;29.10
13387;BME280;6763;48.524;9.044;2023-04-08T10:13:52;98195.94;;;21.79;28.05
13387;BME280;6763;48.524;9.044;2023-04-08T10:16:22;98197.66;;;21.80;28.38
13387;BME280;6763;48.524;9.044;2023-04-08T10:18:50;98188.72;;;21.98;27.89
13387;BME280;6763;48.524;9.044;2023-04-08T10:21:33;98189.94;;;22.22;27.36
13387;BME280;6763;48.524;9.044;2023-04-08T10:23:59;98187.63;;;22.60;27.14
13387;BME280;6763;48.524;9.044;2023-04-08T10:26:43;98179.72;;;23.17;26.16
13387;BME280;6763;48.524;9.044;2023-04-08T10:31:50;98178.31;;;23.93;24.48
13387;BME280;6763;48.524;9.044;2023-04-08T10:34:17;98180.66;;;24.24;24.40
13387;BME280;6763;48.524;9.044;2023-04-08T10:36:43;98183.97;;;24.65;24.08
13387;BME280;6763;48.524;9.044;2023-04-08T10:39:09;98180.03;;;25.09;23.67
13387;BME280;6763;48.524;9.044;2023-04-08T10:41:41;98175.81;;;24.94;22.01
13387;BME280;6763;48.524;9.044;2023-04-08T10:44:20;98181.50;;;24.37;22.23
13387;BME280;6763;48.524;9.044;2023-04-08T10:46:46;98177.44;;;23.80;22.95
13387;BME280;6763;48.524;9.044;2023-04-08T10:49:13;98183.41;;;23.14;23.24
13387;BME280;6763;48.524;9.044;2023-04-08T10:51:40;98179.78;;;22.74;24.07
13387;BME280;6763;48.524;9.044;2023-04-08T10:54:13;98172.56;;;22.62;23.98
13387;BME280;6763;48.524;9.044;2023-04-08T10:56:50;98174.50;;;22.45;24.52
13387;BME280;6763;48.524;9.044;2023-04-08T10:59:26;98174.75;;;22.26;24.61
13387;BME280;6763;48.524;9.044;2023-04-08T11:01:52;98171.94;;;22.15;25.05
13387;BME280;6763;48.524;9.044;2023-04-08T11:04:19;98168.25;;;22.17;25.35
13387;BME280;6763;48.524;9.044;2023-04-08T11:06:45;98177.66;;;22.21;24.97
13387;BME280;6763;48.524;9.044;2023-04-08T11:09:12;98174.63;;;21.99;24.84
13387;BME280;6763;48.524;9.044;2023-04-08T11:11:40;98178.13;;;21.53;25.20
13387;BME280;6763;48.524;9.044;2023-04-08T11:14:06;98183.44;;;21.04;25.98
13387;BME280;6763;48.524;9.044;2023-04-08T11:16:32;98186.97;;;20.55;26.55
13387;BME280;6763;48.524;9.044;2023-04-08T11:18:58;98187.22;;;20.16;26.82
13387;BME280;6763;48.524;9.044;2023-04-08T11:21:24;98183.03;;;19.78;27.49
13387;BME280;6763;48.524;9.044;2023-04-08T11:23:53;98183.66;;;19.47;27.86
13387;BME280;6763;48.524;9.044;2023-04-08T11:26:18;98188.25;;;19.24;27.99
13387;BME280;6763;48.524;9.044;2023-04-08T11:28:45;98182.78;;;19.09;28.27
13387;BME280;6763;48.524;9.044;2023-04-08T11:31:13;98180.97;;;18.93;28.06
13387;BME280;6763;48.524;9.044;2023-04-08T11:33:46;98183.06;;;18.85;28.25
13387;BME280;6763;48.524;9.044;2023-04-08T11:36:13;98180.94;;;18.74;28.27
13387;BME280;6763;48.524;9.044;2023-04-08T11:38:39;98170.34;;;18.57;27.86
13387;BME280;6763;48.524;9.044;2023-04-08T11:41:08;98191.28;;;18.37;28.15
13387;BME280;6763;48.524;9.044;2023-04-08T11:43:34;98179.63;;;18.24;28.58
13387;BME280;6763;48.524;9.044;2023-04-08T11:46:10;98187.44;;;18.25;28.63
13387;BME280;6763;48.524;9.044;2023-04-08T11:48:36;98191.97;;;18.22;28.27
13387;BME280;6763;48.524;9.044;2023-04-08T11:51:04;98184.81;;;18.25;28.39
13387;BME280;6763;48.524;9.044;2023-04-08T11:53:30;98190.19;;;18.22;28.83
13387;BME280;6763;48.524;9.044;2023-04-08T11:55:55;98185.47;;;18.30;28.72
13387;BME280;6763;48.524;9.044;2023-04-08T11:58:21;98188.03;;;18.32;28.63
13387;BME280;6763;48.524;9.044;2023-04-08T12:00:47;98187.03;;;18.34;29.01
13387;BME280;6763;48.524;9.044;2023-04-08T12:03:13;98188.88;;;18.32;29.04
13387;BME280;6763;48.524;9.044;2023-04-08T12:05:39;98186.50;;;18.26;29.36
13387;BME280;6763;48.524;9.044;2023-04-08T12:08:04;98192.88;;;18.21;29.26
13387;BME280;6763;48.524;9.044;2023-04-08T12:10:30;98192.03;;;18.20;29.74
13387;BME280;6763;48.524;9.044;2023-04-08T12:12:56;98197.66;;;18.11;29.73
13387;BME280;6763;48.524;9.044;2023-04-08T12:15:22;98194.94;;;17.92;30.60
13387;BME280;6763;48.524;9.044;2023-04-08T12:17:47;98194.72;;;17.77;30.76
13387;BME280;6763;48.524;9.044;2023-04-08T12:20:12;98194.84;;;17.52;31.58
13387;BME280;6763;48.524;9.044;2023-04-08T12:22:38;98196.81;;;17.24;32.30
13387;BME280;6763;48.524;9.044;2023-04-08T12:25:04;98197.81;;;16.98;33.06
13387;BME280;6763;48.524;9.044;2023-04-08T12:27:30;98198.03;;;16.92;33.43
13387;BME280;6763;48.524;9.044;2023-04-08T12:29:59;98205.00;;;16.93;33.45
13387;BME280;6763;48.524;9.044;2023-04-08T12:32:24;98204.41;;;17.08;33.49
13387;BME280;6763;48.524;9.044;2023-04-08T12:34:50;98202.06;;;17.24;33.61
13387;BME280;6763;48.524;9.044;2023-04-08T12:37:16;98206.28;;;17.50;33.09
13387;BME280;6763;48.524;9.044;2023-04-08T12:39:41;98198.31;;;17.74;32.78
13387;BME280;6763;48.524;9.044;2023-04-08T12:42:07;98197.31;;;17.98;32.57
13387;BME280;6763;48.524;9.044;2023-04-08T12:44:32;98197.72;;;18.10;32.59
13387;BME280;6763;48.524;9.044;2023-04-08T12:46:57;98196.09;;;18.07;32.36
13387;BME280;6763;48.524;9.044;2023-04-08T12:49:24;98197.72;;;18.10;32.59
13387;BME280;6763;48.524;9.044;2023-04-08T12:51:49;98203.38;;;18.21;32.33
13387;BME280;6763;48.524;9.044;2023-04-08T12:54:15;98192.56;;;18.28;31.74
13387;BME280;6763;48.524;9.044;2023-04-08T12:56:41;98190.63;;;18.32;31.29
13387;BME280;6763;48.524;9.044;2023-04-08T12:59:07;98192.63;;;18.47;31.04
13387;BME280;6763;48.524;9.044;2023-04-08T13:01:33;98197.22;;;18.62;29.43
13387;BME280;6763;48.524;9.044;2023-04-08T13:03:58;98192.81;;;18.63;29.09
13387;BME280;6763;48.524;9.044;2023-04-08T13:06:24;98188.28;;;18.66;28.97
13387;BME280;6763;48.524;9.044;2023-04-08T13:08:50;98191.84;;;18.84;28.90
13387;BME280;6763;48.524;9.044;2023-04-08T13:11:16;98192.72;;;19.03;28.24
13387;BME280;6763;48.524;9.044;2023-04-08T13:13:41;98192.66;;;19.04;27.41
13387;BME280;6763;48.524;9.044;2023-04-08T13:16:07;98185.06;;;18.98;27.45
13387;BME280;6763;48.524;9.044;2023-04-08T13:18:33;98189.53;;;18.78;27.59